createdAt,value
2018-02-25T00:00:43.411Z,97859
2018-02-25T00:03:10.874Z,97859
2018-02-25T00:05:38.381Z,97857
2018-02-25T00:08:05.124Z,97846
2018-02-25T00:10:31.823Z,97843
2018-02-25T00:12:59.250Z,97843
2018-02-25T00:15:25.950Z,97837
2018-02-25T00:17:53.210Z,97842
2018-02-25T00:20:19.894Z,97842
2018-02-25T00:22:46.590Z,97842
2018-02-25T00:25:13.252Z,97843
2018-02-25T00:27:39.938Z,97843
2018-02-25T00:30:06.607Z,97849
2018-02-25T00:32:34.104Z,97836
2018-02-25T00:35:01.274Z,97845
2018-02-25T00:37:27.988Z,97852
2018-02-25T00:39:54.745Z,97848
2018-02-25T00:42:21.491Z,97846
2018-02-25T00:44:48.163Z,97850
2018-02-25T00:47:14.846Z,97840
2018-02-25T00:49:41.537Z,97835
2018-02-25T00:52:08.261Z,97831
2018-02-25T00:54:35.034Z,97832
2018-02-25T00:57:01.768Z,97820
2018-02-25T00:59:28.426Z,97829
2018-02-25T01:01:55.098Z,97828
2018-02-25T01:04:22.519Z,97824
2018-02-25T01:06:49.223Z,97823
2018-02-25T01:09:15.911Z,97825
2018-02-25T01:11:42.632Z,97821
2018-02-25T01:14:09.309Z,97826
2018-02-25T01:16:35.991Z,97825
2018-02-25T01:19:02.692Z,97821
2018-02-25T01:21:29.405Z,97821
2018-02-25T01:23:56.086Z,97817
2018-02-25T01:26:22.759Z,97821
2018-02-25T01:28:49.426Z,97815
2018-02-25T01:31:16.120Z,97815
2018-02-25T01:33:43.538Z,97815
2018-02-25T01:36:10.255Z,97811
2018-02-25T01:41:10.388Z,97815
2018-02-25T01:43:37.094Z,97815
2018-02-25T01:46:03.759Z,97808
2018-02-25T01:48:31.193Z,97808
2018-02-25T01:51:03.859Z,97809
2018-02-25T01:53:30.549Z,97811
2018-02-25T01:55:57.989Z,97802
2018-02-25T01:58:24.675Z,97802
2018-02-25T02:00:51.364Z,97806
2018-02-25T02:03:18.048Z,97799
2018-02-25T02:05:44.742Z,97806
2018-02-25T02:08:11.387Z,97804
2018-02-25T02:10:38.078Z,97806
2018-02-25T02:13:04.876Z,97808
2018-02-25T02:15:31.583Z,97809
2018-02-25T02:17:58.286Z,97812
2018-02-25T02:20:25.843Z,97814
2018-02-25T02:22:52.579Z,97811
2018-02-25T02:25:19.288Z,97813
2018-02-25T02:27:45.987Z,97814
2018-02-25T02:30:13.417Z,97804
2018-02-25T02:32:40.114Z,97808
2018-02-25T02:35:06.788Z,97808
2018-02-25T02:37:33.528Z,97808
2018-02-25T02:40:00.254Z,97810
2018-02-25T02:42:27.762Z,97812
2018-02-25T02:44:54.577Z,97823
2018-02-25T02:47:28.422Z,97820
2018-02-25T02:49:55.112Z,97819
2018-02-25T02:52:21.803Z,97819
2018-02-25T02:54:48.483Z,97819
2018-02-25T02:57:15.150Z,97814
2018-02-25T02:59:41.906Z,97809
2018-02-25T03:02:08.618Z,97810
2018-02-25T03:04:35.267Z,97807
2018-02-25T03:07:01.975Z,97805
2018-02-25T03:09:28.693Z,97810
2018-02-25T03:11:55.419Z,97812
2018-02-25T03:14:22.107Z,97813
2018-02-25T03:16:49.614Z,97816
2018-02-25T03:19:16.307Z,97812
2018-02-25T03:21:43.644Z,97813
2018-02-25T03:24:10.317Z,97812
2018-02-25T03:26:37.740Z,97816
2018-02-25T03:29:04.622Z,97814
2018-02-25T03:31:32.246Z,97816
2018-02-25T03:33:59.015Z,97813
2018-02-25T03:36:25.714Z,97818
2018-02-25T03:38:52.436Z,97832
2018-02-25T03:41:19.887Z,97828
2018-02-25T03:43:47.318Z,97833
2018-02-25T03:46:14.003Z,97831
2018-02-25T03:48:40.703Z,97834
2018-02-25T03:51:07.359Z,97830
2018-02-25T03:53:34.028Z,97829
2018-02-25T03:56:01.455Z,97832
2018-02-25T03:58:28.156Z,97829
2018-02-25T04:00:54.828Z,97832
2018-02-25T04:03:21.510Z,97826
2018-02-25T04:05:48.934Z,97829
2018-02-25T04:08:15.593Z,97828
2018-02-25T04:10:42.293Z,97823
2018-02-25T04:13:08.997Z,97827
2018-02-25T04:15:36.433Z,97834
2018-02-25T04:18:03.186Z,97834
2018-02-25T04:20:29.882Z,97831
2018-02-25T04:22:56.553Z,97825
2018-02-25T04:25:23.230Z,97831
2018-02-25T04:27:50.678Z,97830
2018-02-25T04:30:17.364Z,97834
2018-02-25T04:32:44.044Z,97841
2018-02-25T04:35:10.727Z,97842
2018-02-25T04:37:38.157Z,97840
2018-02-25T04:40:04.870Z,97842
2018-02-25T04:42:31.582Z,97838
2018-02-25T04:44:58.990Z,97835
2018-02-25T04:47:25.679Z,97840
2018-02-25T04:49:52.372Z,97841
2018-02-25T04:52:19.027Z,97847
2018-02-25T04:54:45.703Z,97844
2018-02-25T04:57:13.111Z,97842
2018-02-25T04:59:39.790Z,97847
2018-02-25T05:02:07.246Z,97848
2018-02-25T05:04:33.933Z,97846
2018-02-25T05:07:00.596Z,97844
2018-02-25T05:09:27.259Z,97845
2018-02-25T05:11:53.967Z,97850
2018-02-25T05:14:20.652Z,97855
2018-02-25T05:16:47.351Z,97846
2018-02-25T05:19:14.038Z,97845
2018-02-25T05:21:40.709Z,97846
2018-02-25T05:24:08.129Z,97848
2018-02-25T05:26:34.798Z,97851
2018-02-25T05:29:01.511Z,97855
2018-02-25T05:31:28.236Z,97853
2018-02-25T05:33:54.912Z,97852
2018-02-25T05:36:21.575Z,97860
2018-02-25T05:38:49.012Z,97867
2018-02-25T05:41:15.702Z,97863
2018-02-25T05:43:42.378Z,97859
2018-02-25T05:46:09.074Z,97860
2018-02-25T05:48:36.459Z,97869
2018-02-25T05:51:03.165Z,97873
2018-02-25T05:53:30.572Z,97871
2018-02-25T05:55:57.241Z,97879
2018-02-25T05:58:23.919Z,97877
2018-02-25T06:00:51.398Z,97875
2018-02-25T06:03:18.062Z,97884
2018-02-25T06:05:44.722Z,97890
2018-02-25T06:08:11.386Z,97904
2018-02-25T06:10:38.126Z,97914
2018-02-25T06:13:04.829Z,97922
2018-02-25T06:15:32.255Z,97917
2018-02-25T06:17:59.658Z,97930
2018-02-25T06:20:26.363Z,97935
2018-02-25T06:22:53.828Z,97940
2018-02-25T06:25:21.269Z,97951
2018-02-25T06:27:48.696Z,97960
2018-02-25T06:30:15.385Z,97962
2018-02-25T06:32:42.830Z,97970
2018-02-25T06:35:09.555Z,97984
2018-02-25T06:37:36.263Z,97995
2018-02-25T06:40:03.027Z,98012
2018-02-25T06:42:29.698Z,98042
2018-02-25T06:44:56.386Z,98066
2018-02-25T06:47:23.081Z,98090
2018-02-25T06:49:49.809Z,98122
2018-02-25T06:52:16.462Z,98157
2018-02-25T06:54:43.128Z,98194
2018-02-25T06:57:10.564Z,98242
2018-02-25T06:59:37.285Z,98107
2018-02-25T07:02:03.971Z,97965
2018-02-25T07:04:30.678Z,97959
2018-02-25T07:06:57.380Z,97961
2018-02-25T07:09:24.043Z,97962
2018-02-25T07:11:50.771Z,97959
2018-02-25T07:14:17.422Z,97959
2018-02-25T07:16:44.109Z,97953
2018-02-25T07:19:11.593Z,97950
2018-02-25T07:21:39.012Z,97954
2018-02-25T07:24:05.713Z,97959
2018-02-25T07:26:33.171Z,97949
2018-02-25T07:29:00.614Z,97947
2018-02-25T07:31:27.363Z,97947
2018-02-25T07:33:54.876Z,97948
2018-02-25T07:36:21.626Z,97948
2018-02-25T07:38:48.289Z,97942
2018-02-25T07:41:14.991Z,97942
2018-02-25T07:43:41.655Z,97949
2018-02-25T07:46:08.312Z,97951
2018-02-25T07:48:34.980Z,97953
2018-02-25T07:51:01.690Z,97946
2018-02-25T07:53:28.371Z,97947
2018-02-25T07:55:55.823Z,97947
2018-02-25T07:58:23.321Z,97950
2018-02-25T08:00:50.024Z,97945
2018-02-25T08:03:16.714Z,97947
2018-02-25T08:05:43.448Z,97948
2018-02-25T08:08:10.125Z,97948
2018-02-25T08:10:36.819Z,97953
2018-02-25T08:13:04.260Z,97949
2018-02-25T08:15:30.982Z,97955
2018-02-25T08:17:57.647Z,97952
2018-02-25T08:20:24.343Z,97960
2018-02-25T08:22:51.055Z,97954
2018-02-25T08:25:18.442Z,97956
2018-02-25T08:27:45.130Z,97958
2018-02-25T08:30:11.842Z,97949
2018-02-25T08:32:38.517Z,97959
2018-02-25T08:35:05.212Z,97963
2018-02-25T08:37:31.897Z,97949
2018-02-25T08:39:58.619Z,97957
2018-02-25T08:42:25.300Z,97958
2018-02-25T08:44:52.719Z,97953
2018-02-25T08:47:19.416Z,97960
2018-02-25T08:49:46.830Z,97957
2018-02-25T08:52:13.539Z,97958
2018-02-25T08:54:40.226Z,97966
2018-02-25T08:57:06.893Z,97961
2018-02-25T08:59:33.567Z,97960
2018-02-25T09:02:00.282Z,97967
2018-02-25T09:04:27.796Z,97971
2018-02-25T09:06:55.098Z,97969
2018-02-25T09:09:21.776Z,97960
2018-02-25T09:11:48.531Z,97965
2018-02-25T09:14:15.260Z,97961
2018-02-25T09:16:41.943Z,97961
2018-02-25T09:19:08.660Z,97950
2018-02-25T09:21:35.325Z,97952
2018-02-25T09:24:02.003Z,97947
2018-02-25T09:26:29.471Z,97942
2018-02-25T09:28:56.878Z,97947
2018-02-25T09:31:23.616Z,97945
2018-02-25T09:33:50.467Z,97942
2018-02-25T09:36:17.184Z,97945
2018-02-25T09:38:43.888Z,82193
2018-02-25T09:41:10.649Z,82193
2018-02-25T09:43:39.040Z,82193
2018-02-25T09:46:07.360Z,82193
2018-02-25T09:48:35.763Z,82193
2018-02-25T09:51:04.113Z,82193
2018-02-25T09:53:32.438Z,82193
2018-02-25T09:56:00.801Z,82193
2018-02-25T09:58:29.123Z,82193
2018-02-25T10:00:57.442Z,82193
2018-02-25T10:03:25.778Z,82193
2018-02-25T10:05:54.114Z,82193
2018-02-25T10:08:22.450Z,82193
2018-02-25T10:10:50.832Z,82193
2018-02-25T10:13:19.165Z,82193
2018-02-25T10:15:47.508Z,82193
2018-02-25T10:18:15.822Z,82193
2018-02-25T10:20:44.159Z,82193
2018-02-25T10:23:12.571Z,82193
2018-02-25T10:25:40.891Z,82193
2018-02-25T10:28:09.202Z,82193
2018-02-25T10:30:37.570Z,82193
2018-02-25T10:33:05.894Z,82193
2018-02-25T10:35:34.222Z,82193
2018-02-25T10:38:02.543Z,82193
2018-02-25T10:40:30.853Z,82193
2018-02-25T10:42:59.183Z,82193
2018-02-25T10:45:27.550Z,82193
2018-02-25T10:47:55.895Z,82193
2018-02-25T10:50:24.261Z,82193
2018-02-25T10:52:52.588Z,82193
2018-02-25T10:55:20.915Z,82193
2018-02-25T10:57:49.279Z,82193
2018-02-25T11:00:23.712Z,82193
2018-02-25T11:02:52.076Z,82193
2018-02-25T11:05:20.408Z,82193
2018-02-25T11:07:48.756Z,82193
2018-02-25T11:10:17.160Z,82193
2018-02-25T11:12:45.454Z,82193
2018-02-25T11:15:13.902Z,82193
2018-02-25T11:17:42.886Z,82193
2018-02-25T11:20:11.277Z,82193
2018-02-25T11:22:40.960Z,82193
2018-02-25T11:25:09.423Z,82193
2018-02-25T11:27:37.806Z,82193
2018-02-25T11:30:07.110Z,82193
2018-02-25T11:32:35.447Z,82193
2018-02-25T11:35:03.880Z,82193
2018-02-25T11:37:33.008Z,82193
2018-02-25T11:40:01.420Z,82193
2018-02-25T11:42:29.798Z,82193
2018-02-25T11:44:58.142Z,82193
2018-02-25T11:47:26.497Z,82193
2018-02-25T11:49:55.409Z,82193
2018-02-25T11:52:23.753Z,82193
2018-02-25T11:54:52.095Z,82193
2018-02-25T11:57:20.437Z,82193
2018-02-25T11:59:48.804Z,82193
2018-02-25T12:02:17.291Z,82193
2018-02-25T12:04:46.520Z,82193
2018-02-25T12:07:14.879Z,82193
2018-02-25T12:09:43.214Z,82193
2018-02-25T12:12:11.575Z,82193
2018-02-25T12:14:40.042Z,82193
2018-02-25T12:17:08.362Z,82193
2018-02-25T12:19:36.781Z,82193
2018-02-25T12:22:05.131Z,82193
2018-02-25T12:24:33.562Z,82193
2018-02-25T12:27:01.917Z,82193
2018-02-25T12:29:30.247Z,82193
2018-02-25T12:31:58.591Z,82193
2018-02-25T12:34:26.939Z,82193
2018-02-25T12:36:56.092Z,82193
2018-02-25T12:39:24.450Z,82193
2018-02-25T12:41:53.699Z,82193
2018-02-25T12:44:22.089Z,82193
2018-02-25T12:46:50.574Z,82193
2018-02-25T12:49:18.948Z,82193
2018-02-25T12:51:47.291Z,82193
2018-02-25T12:54:15.620Z,82193
2018-02-25T12:56:44.005Z,82193
2018-02-25T12:59:12.325Z,82193
2018-02-25T13:01:40.699Z,82193
2018-02-25T13:04:09.087Z,82193
2018-02-25T13:06:37.459Z,82193
2018-02-25T13:09:05.846Z,82193
2018-02-25T13:11:35.184Z,82193
2018-02-25T13:14:03.711Z,82193
2018-02-25T13:16:32.084Z,82193
2018-02-25T13:19:00.439Z,82193
2018-02-25T13:21:29.407Z,82193
2018-02-25T13:23:57.833Z,82193
2018-02-25T13:26:26.157Z,82193
2018-02-25T13:28:54.565Z,82193
2018-02-25T13:31:23.039Z,82193
2018-02-25T13:33:51.348Z,82193
2018-02-25T13:36:19.794Z,82193
2018-02-25T13:38:48.101Z,82193
2018-02-25T13:41:16.477Z,82193
2018-02-25T13:43:44.843Z,82193
2018-02-25T13:46:13.226Z,82193
2018-02-25T13:48:41.590Z,82193
2018-02-25T13:51:09.912Z,82193
2018-02-25T13:53:38.320Z,82193
2018-02-25T13:56:06.766Z,82193
2018-02-25T13:58:35.109Z,82193
2018-02-25T14:01:03.514Z,82193
2018-02-25T14:03:31.872Z,82193
2018-02-25T14:06:00.323Z,82193
2018-02-25T14:08:28.712Z,82193
2018-02-25T14:10:57.067Z,82193
2018-02-25T14:13:25.387Z,82193
2018-02-25T14:15:53.721Z,82193
2018-02-25T14:18:22.062Z,82193
2018-02-25T14:20:50.543Z,82193
2018-02-25T14:23:18.882Z,82193
2018-02-25T14:25:47.230Z,82193
2018-02-25T14:28:15.667Z,82193
2018-02-25T14:30:44.007Z,82193
2018-02-25T14:33:12.464Z,82193
2018-02-25T14:35:40.800Z,82193
2018-02-25T14:38:09.365Z,82193
2018-02-25T14:40:37.713Z,82193
2018-02-25T14:43:06.805Z,82193
2018-02-25T14:45:35.410Z,82193
2018-02-25T14:48:03.738Z,82193
2018-02-25T14:50:32.110Z,82193
2018-02-25T14:53:00.458Z,82193
2018-02-25T14:55:28.778Z,82193
2018-02-25T14:57:57.180Z,82193
2018-02-25T15:00:25.558Z,82193
2018-02-25T15:02:54.673Z,82193
2018-02-25T15:05:23.014Z,82193
2018-02-25T15:07:51.342Z,82193
2018-02-25T15:10:19.689Z,82193
2018-02-25T15:12:48.028Z,82193
2018-02-25T15:15:16.403Z,82193
2018-02-25T15:17:44.877Z,82193
2018-02-25T15:20:13.254Z,82193
2018-02-25T15:22:41.623Z,82193
2018-02-25T15:25:10.074Z,82193
2018-02-25T15:27:38.421Z,82193
2018-02-25T15:30:06.922Z,82193
2018-02-25T15:32:35.269Z,82193
2018-02-25T15:35:03.641Z,82193
2018-02-25T15:37:31.996Z,82193
2018-02-25T15:40:00.314Z,82193
2018-02-25T15:42:28.764Z,82193
2018-02-25T15:44:57.192Z,82193
2018-02-25T15:47:25.559Z,82193
2018-02-25T15:49:53.941Z,82193
2018-02-25T15:52:22.326Z,82193
2018-02-25T15:54:50.694Z,82193
2018-02-25T15:57:19.204Z,82193
2018-02-25T15:59:47.601Z,82193
2018-02-25T16:02:15.962Z,82193
2018-02-25T16:04:45.332Z,82193
2018-02-25T16:07:13.706Z,82193
2018-02-25T16:09:42.813Z,82193
2018-02-25T16:12:11.129Z,82193
2018-02-25T16:14:39.479Z,82193
2018-02-25T16:17:07.853Z,82193
2018-02-25T16:19:36.404Z,82193
2018-02-25T16:22:05.594Z,82193
2018-02-25T16:24:33.953Z,82193
2018-02-25T16:27:02.307Z,82193
2018-02-25T16:29:30.656Z,82193
2018-02-25T16:31:59.051Z,82193
2018-02-25T16:34:27.433Z,82193
2018-02-25T16:36:55.807Z,82193
2018-02-25T16:39:24.183Z,82193
2018-02-25T16:41:52.536Z,82193
2018-02-25T16:44:20.917Z,82193
2018-02-25T16:46:49.361Z,82193
2018-02-25T16:49:17.717Z,82193
2018-02-25T16:51:46.101Z,82193
2018-02-25T16:54:14.470Z,82193
2018-02-25T16:56:42.836Z,82193
2018-02-25T16:59:11.199Z,82193
2018-02-25T17:01:39.556Z,82193
2018-02-25T17:04:07.939Z,82193
2018-02-25T17:06:36.297Z,82193
2018-02-25T17:09:04.688Z,82193
2018-02-25T17:11:33.116Z,82193
2018-02-25T17:14:01.475Z,82193
2018-02-25T17:16:29.836Z,82193
2018-02-25T17:18:58.314Z,82193
2018-02-25T17:21:26.705Z,82193
2018-02-25T17:23:55.090Z,82193
2018-02-25T17:26:23.414Z,82193
2018-02-25T17:28:51.724Z,82193
2018-02-25T17:31:20.178Z,82193
2018-02-25T17:33:48.569Z,82193
2018-02-25T17:36:16.959Z,82193
2018-02-25T17:38:45.355Z,82193
2018-02-25T17:41:14.255Z,82193
2018-02-25T17:43:42.593Z,82193
2018-02-25T17:46:10.930Z,82193
2018-02-25T17:48:39.267Z,82193
2018-02-25T17:51:07.647Z,82193
2018-02-25T17:53:36.030Z,82193
2018-02-25T17:56:04.390Z,82193
2018-02-25T17:58:32.831Z,82193
2018-02-25T18:01:01.155Z,82193
2018-02-25T18:03:29.547Z,82193
2018-02-25T18:05:57.890Z,82193
2018-02-25T18:08:26.276Z,82193
2018-02-25T18:10:54.650Z,82193
2018-02-25T18:13:23.014Z,82193
2018-02-25T18:15:51.390Z,82193
2018-02-25T18:18:19.786Z,82193
2018-02-25T18:20:48.271Z,82193
2018-02-25T18:23:16.731Z,82193
2018-02-25T18:25:45.117Z,82193
2018-02-25T18:28:13.509Z,82193
2018-02-25T18:30:42.040Z,82193
2018-02-25T18:33:10.467Z,82193
2018-02-25T18:35:38.941Z,82193
2018-02-25T18:38:07.340Z,82193
2018-02-25T18:40:35.727Z,82193
2018-02-25T18:43:04.115Z,82193
2018-02-25T18:45:32.448Z,82193
2018-02-25T18:48:00.830Z,82193
2018-02-25T18:50:29.265Z,82193
2018-02-25T18:52:57.638Z,82193
2018-02-25T18:55:26.168Z,82193
2018-02-25T18:57:54.505Z,82193
2018-02-25T19:00:22.985Z,82193
2018-02-25T19:02:51.341Z,82193
2018-02-25T19:05:20.056Z,82193
2018-02-25T19:07:48.437Z,82193
2018-02-25T19:10:17.432Z,82193
2018-02-25T19:12:45.864Z,82193
2018-02-25T19:15:14.211Z,82193
2018-02-25T19:17:42.586Z,82193
2018-02-25T19:20:10.972Z,82193
2018-02-25T19:22:39.313Z,82193
2018-02-25T19:25:07.724Z,82193
2018-02-25T19:27:36.139Z,82193
2018-02-25T19:30:04.492Z,82193
2018-02-25T19:32:32.910Z,82193
2018-02-25T19:35:01.281Z,82193
2018-02-25T19:37:35.676Z,82193
2018-02-25T19:40:04.013Z,82193
2018-02-25T19:42:32.422Z,82193
2018-02-25T19:45:00.789Z,82193
2018-02-25T19:47:29.148Z,82193
2018-02-25T19:49:57.529Z,82193
2018-02-25T19:52:25.857Z,82193
2018-02-25T19:54:54.213Z,82193
2018-02-25T19:57:22.623Z,82193
2018-02-25T19:59:51.034Z,82193
2018-02-25T20:02:19.359Z,82193
2018-02-25T20:04:47.729Z,82193
2018-02-25T20:07:16.057Z,82193
2018-02-25T20:09:44.372Z,82193
2018-02-25T20:12:12.739Z,82193
2018-02-25T20:14:41.120Z,82193
2018-02-25T20:17:09.530Z,82193
2018-02-25T20:19:37.884Z,82193
2018-02-25T20:22:06.231Z,82193
2018-02-25T20:24:34.594Z,82193
2018-02-25T20:27:03.001Z,82193
2018-02-25T20:29:31.367Z,82193
2018-02-25T20:31:59.758Z,82193
2018-02-25T20:34:28.151Z,82193
2018-02-25T20:36:56.524Z,82193
2018-02-25T20:39:24.894Z,82193
2018-02-25T20:41:53.281Z,82193
2018-02-25T20:44:21.592Z,82193
2018-02-25T20:46:49.977Z,82193
2018-02-25T20:49:18.444Z,82193
2018-02-25T20:51:46.809Z,82193
2018-02-25T20:54:15.271Z,82193
2018-02-25T20:56:43.633Z,82193
2018-02-25T20:59:12.011Z,82193
2018-02-25T21:01:40.423Z,82193
2018-02-25T21:04:08.921Z,82193
2018-02-25T21:06:37.339Z,82193
2018-02-25T21:09:05.684Z,82193
2018-02-25T21:11:34.161Z,82193
2018-02-25T21:14:02.497Z,82193
2018-02-25T21:16:30.855Z,82193
2018-02-25T21:18:59.210Z,82193
2018-02-25T21:21:27.578Z,82193
2018-02-25T21:23:55.999Z,82193
2018-02-25T21:26:24.340Z,82193
2018-02-25T21:28:52.729Z,82193
2018-02-25T21:31:21.099Z,82193
2018-02-25T21:33:49.538Z,82193
2018-02-25T21:36:17.879Z,82193
2018-02-25T21:38:46.351Z,82193
2018-02-25T21:41:14.737Z,82193
2018-02-25T21:43:43.100Z,82193
2018-02-25T21:46:11.512Z,82193
2018-02-25T21:48:39.925Z,82193
2018-02-25T21:51:08.254Z,82193
2018-02-25T21:53:40.547Z,82193
2018-02-25T21:56:14.882Z,82193
2018-02-25T21:58:49.408Z,82193
2018-02-25T22:04:20.881Z,97711
2018-02-25T22:06:49.233Z,97707
2018-02-25T22:09:17.583Z,97705
2018-02-25T22:11:45.990Z,97703
2018-02-25T22:14:14.333Z,97699
2018-02-25T22:16:42.724Z,97696
2018-02-25T22:19:12.191Z,97697
2018-02-25T22:21:40.529Z,97699
2018-02-25T22:24:08.910Z,97694
2018-02-25T22:26:37.346Z,97700
2018-02-25T22:29:05.703Z,97703
2018-02-25T22:31:34.089Z,97697
2018-02-25T22:34:02.445Z,97700
2018-02-25T22:36:30.758Z,97699
2018-02-25T22:38:59.105Z,97696
2018-02-25T22:41:27.564Z,97695
2018-02-25T22:43:55.901Z,97698
2018-02-25T22:46:24.284Z,97700
2018-02-25T22:48:53.372Z,97696
2018-02-25T22:51:21.752Z,97695
2018-02-25T22:53:50.151Z,97694
2018-02-25T22:56:18.548Z,97694
2018-02-25T22:58:47.034Z,97700
2018-02-25T23:01:15.369Z,97694
2018-02-25T23:03:43.796Z,97698
2018-02-25T23:06:12.153Z,97693
2018-02-25T23:08:40.484Z,97692
2018-02-25T23:11:08.846Z,97689
2018-02-25T23:13:37.224Z,97693
2018-02-25T23:16:05.558Z,97687
2018-02-25T23:18:34.015Z,97687
2018-02-25T23:21:02.362Z,97685
2018-02-25T23:23:30.707Z,97683
2018-02-25T23:25:59.148Z,97686
2018-02-25T23:28:27.479Z,97683
2018-02-25T23:30:55.841Z,97679
2018-02-25T23:33:24.301Z,97681
2018-02-25T23:35:52.638Z,97679
2018-02-25T23:38:20.969Z,97685
2018-02-25T23:40:49.321Z,97686
2018-02-25T23:43:17.732Z,97684
2018-02-25T23:45:46.044Z,97685
2018-02-25T23:48:14.364Z,97681
2018-02-25T23:50:42.731Z,97679
2018-02-25T23:53:11.039Z,97680
2018-02-25T23:55:40.513Z,97681
2018-02-25T23:58:08.882Z,97671
